Time;durP1;ratioP1;P1;durP2;ratioP2;P2;SDS_P1;SDS_P2;PMS_P1;PMS_P2;Temp;Humidity;BMP_temperature;BMP_pressure;BME280_temperature;BME280_humidity;BME280_pressure;Samples;Min_cycle;Max_cycle;Signal;HPM_P1;HPM_P2
2021/04/26 00:02:06;;;;;;;12.73;8.37;;;;;;;;;;5053039;28;20025;-69
2021/04/26 00:04:31;;;;;;;10.87;7.20;;;;;;;;;;5052358;28;20296;-69
2021/04/26 00:06:56;;;;;;;13.97;7.63;;;;;;;;;;5052760;28;20017;-68
2021/04/26 00:09:22;;;;;;;13.73;8.43;;;;;;;;;;5048667;28;20103;-68
2021/04/26 00:11:47;;;;;;;14.43;8.10;;;;;;;;;;5052212;28;20522;-69
2021/04/26 00:14:12;;;;;;;13.40;8.90;;;;;;;;;;5051088;28;20388;-68
2021/04/26 00:16:37;;;;;;;11.03;6.93;;;;;;;;;;5050943;28;20649;-68
2021/04/26 00:19:03;;;;;;;10.73;7.30;;;;;;;;;;5048428;28;20112;-69
2021/04/26 00:21:29;;;;;;;11.93;7.73;;;;;;;;;;5051005;28;20017;-68
2021/04/26 00:23:54;;;;;;;11.37;7.70;;;;;;;;;;5052071;28;20088;-69
2021/04/26 00:26:19;;;;;;;12.27;8.10;;;;;;;;;;5052481;28;20456;-67
2021/04/26 00:28:44;;;;;;;10.80;7.73;;;;;;;;;;5049564;28;20459;-67
2021/04/26 00:31:09;;;;;;;13.57;7.93;;;;;;;;;;5051921;28;20021;-69
2021/04/26 00:33:35;;;;;;;11.57;7.53;;;;;;;;;;5051560;28;20044;-67
2021/04/26 00:36:00;;;;;;;10.90;7.37;;;;;;;;;;5052136;28;20024;-69
2021/04/26 00:38:25;;;;;;;14.10;7.47;;;;;;;;;;5052346;28;20032;-68
2021/04/26 00:40:50;;;;;;;13.17;7.63;;;;;;;;;;5050291;28;20029;-67
2021/04/26 00:43:16;;;;;;;13.97;8.30;;;;;;;;;;5052299;28;20025;-67
2021/04/26 00:45:41;;;;;;;13.73;8.30;;;;;;;;;;5049992;28;20031;-68
2021/04/26 00:48:07;;;;;;;11.17;7.30;;;;;;;;;;5051949;28;20070;-68
2021/04/26 00:50:33;;;;;;;12.77;7.73;;;;;;;;;;5048863;28;20017;-67
2021/04/26 00:53:00;;;;;;;10.67;6.33;;;;;;;;;;5051715;28;20468;-67
2021/04/26 00:55:30;;;;;;;10.73;7.03;;;;;;;;;;5051377;28;20013;-67
2021/04/26 00:57:56;;;;;;;11.53;6.80;;;;;;;;;;5052186;28;20025;-67
2021/04/26 01:00:21;;;;;;;11.20;6.90;;;;;;;;;;5048742;28;20369;-68
2021/04/26 01:02:47;;;;;;;11.73;6.87;;;;;;;;;;5051950;28;20385;-67
2021/04/26 01:05:14;;;;;;;16.10;7.13;;;;;;;;;;5051196;28;20079;-68
2021/04/26 01:07:40;;;;;;;11.83;6.90;;;;;;;;;;5050546;28;20031;-67
2021/04/26 01:10:06;;;;;;;10.97;7.63;;;;;;;;;;5047063;28;20021;-67
2021/04/26 01:12:34;;;;;;;12.37;7.70;;;;;;;;;;5051440;28;20021;-67
2021/04/26 01:15:15;;;;;;;11.97;6.60;;;;;;;;;;5050863;28;20498;-67
2021/04/26 01:17:48;;;;;;;13.87;7.23;;;;;;;;;;5051411;28;20050;-67
2021/04/26 01:20:16;;;;;;;12.13;6.40;;;;;;;;;;5048602;28;20683;-68
2021/04/26 01:23:00;;;;;;;9.77;6.47;;;;;;;;;;5046761;28;20491;-67
2021/04/26 01:25:26;;;;;;;13.73;6.90;;;;;;;;;;5048879;28;20480;-68
2021/04/26 01:28:02;;;;;;;13.23;7.23;;;;;;;;;;5051063;28;20053;-67
2021/04/26 01:30:27;;;;;;;;;;;;;;;;;;5047450;28;20469;-67
2021/04/26 01:32:55;;;;;;;9.48;6.13;;;;;;;;;;5051727;28;20364;-67
2021/04/26 01:35:21;;;;;;;10.50;6.70;;;;;;;;;;5050824;28;20025;-68
2021/04/26 01:37:52;;;;;;;11.27;7.30;;;;;;;;;;5050186;28;20028;-67
2021/04/26 01:40:18;;;;;;;12.53;7.40;;;;;;;;;;5032875;28;20029;-68
2021/04/26 01:42:45;;;;;;;11.33;6.60;;;;;;;;;;5051707;28;20434;-68
2021/04/26 01:45:12;;;;;;;11.30;7.27;;;;;;;;;;5053719;28;20028;-67
2021/04/26 01:47:39;;;;;;;11.93;6.23;;;;;;;;;;5055429;28;20916;-67
2021/04/26 01:50:07;;;;;;;10.77;6.47;;;;;;;;;;5052473;28;20025;-68
2021/04/26 01:52:33;;;;;;;9.73;6.17;;;;;;;;;;5053761;28;20047;-68
2021/04/26 01:54:58;;;;;;;10.20;6.70;;;;;;;;;;5054839;28;20471;-68
2021/04/26 01:57:24;;;;;;;12.37;7.33;;;;;;;;;;5050426;28;20040;-68
2021/04/26 01:59:49;;;;;;;13.27;7.87;;;;;;;;;;5051713;28;20060;-65
2021/04/26 02:02:15;;;;;;;10.10;6.53;;;;;;;;;;5054131;28;20025;-68
2021/04/26 02:04:41;;;;;;;8.00;6.03;;;;;;;;;;5054708;28;20025;-67
2021/04/26 02:07:06;;;;;;;9.20;6.20;;;;;;;;;;5054749;28;20032;-67
2021/04/26 02:09:34;;;;;;;10.13;6.77;;;;;;;;;;5050356;28;20025;-68
2021/04/26 02:12:00;;;;;;;12.30;7.67;;;;;;;;;;5053612;28;20107;-68
2021/04/26 02:14:26;;;;;;;11.27;6.63;;;;;;;;;;5054790;28;20491;-67
2021/04/26 02:16:51;;;;;;;13.53;6.63;;;;;;;;;;5055064;28;20495;-67
2021/04/26 02:19:16;;;;;;;10.57;5.87;;;;;;;;;;5050844;28;20033;-68
2021/04/26 02:21:42;;;;;;;9.33;6.07;;;;;;;;;;5052447;28;20102;-68
2021/04/26 02:24:11;;;;;;;11.10;6.20;;;;;;;;;;5053734;28;20219;-68
2021/04/26 02:26:36;;;;;;;9.30;6.20;;;;;;;;;;5054109;28;20075;-68
2021/04/26 02:29:02;;;;;;;8.20;6.03;;;;;;;;;;5050598;28;20132;-68
2021/04/26 02:31:28;;;;;;;9.23;5.30;;;;;;;;;;5053879;28;20116;-68
2021/04/26 02:33:56;;;;;;;8.27;5.50;;;;;;;;;;5053574;28;20029;-68
2021/04/26 02:36:24;;;;;;;8.73;5.90;;;;;;;;;;5053075;28;20021;-68
2021/04/26 02:38:50;;;;;;;9.97;5.37;;;;;;;;;;5051519;28;20028;-67
2021/04/26 02:41:18;;;;;;;11.80;4.53;;;;;;;;;;5053916;28;20025;-68
2021/04/26 02:43:45;;;;;;;8.23;5.23;;;;;;;;;;5053570;28;20032;-68
2021/04/26 02:46:10;;;;;;;8.37;5.00;;;;;;;;;;5054021;28;20180;-68
2021/04/26 02:48:37;;;;;;;9.43;5.80;;;;;;;;;;5051688;28;20064;-68
2021/04/26 02:51:02;;;;;;;8.27;5.60;;;;;;;;;;5053036;28;20104;-68
2021/04/26 02:53:29;;;;;;;8.00;5.17;;;;;;;;;;5054142;28;20092;-68
2021/04/26 02:55:57;;;;;;;9.27;5.70;;;;;;;;;;5053660;28;20017;-68
2021/04/26 02:58:23;;;;;;;10.10;5.10;;;;;;;;;;5051903;28;20028;-68
2021/04/26 03:00:49;;;;;;;8.80;5.53;;;;;;;;;;5051789;28;20025;-66
2021/04/26 03:03:15;;;;;;;7.20;5.07;;;;;;;;;;5054725;28;20044;-68
2021/04/26 03:05:42;;;;;;;9.67;5.37;;;;;;;;;;5053036;28;20397;-68
2021/04/26 03:08:07;;;;;;;8.90;5.40;;;;;;;;;;5051989;28;20272;-68
2021/04/26 03:10:33;;;;;;;9.90;5.57;;;;;;;;;;5050637;28;20031;-68
2021/04/26 03:12:58;;;;;;;7.33;4.50;;;;;;;;;;5054164;28;20036;-68
2021/04/26 03:15:27;;;;;;;8.67;5.13;;;;;;;;;;5053851;28;20029;-68
2021/04/26 03:17:53;;;;;;;6.80;4.53;;;;;;;;;;5053336;28;20057;-68
2021/04/26 03:20:20;;;;;;;8.20;4.83;;;;;;;;;;5048464;28;20497;-68
2021/04/26 03:22:46;;;;;;;7.27;4.63;;;;;;;;;;5053611;28;20020;-68
2021/04/26 03:25:12;;;;;;;9.17;4.60;;;;;;;;;;5052662;28;20025;-68
2021/04/26 03:27:40;;;;;;;7.47;4.60;;;;;;;;;;5053382;28;20199;-68
2021/04/26 03:30:05;;;;;;;8.33;5.03;;;;;;;;;;5049196;28;20032;-67
2021/04/26 03:32:30;;;;;;;9.27;4.23;;;;;;;;;;5051888;28;20021;-67
2021/04/26 03:34:56;;;;;;;7.37;4.80;;;;;;;;;;5053760;28;20049;-67
2021/04/26 03:37:22;;;;;;;6.50;4.20;;;;;;;;;;5051659;28;20025;-67
2021/04/26 03:39:47;;;;;;;7.83;4.97;;;;;;;;;;5050331;28;20510;-67
2021/04/26 03:42:16;;;;;;;9.90;5.03;;;;;;;;;;5053226;28;20230;-67
2021/04/26 03:44:43;;;;;;;8.20;4.70;;;;;;;;;;5051741;28;20029;-67
2021/04/26 03:47:08;;;;;;;6.77;4.33;;;;;;;;;;5052342;28;20025;-67
2021/04/26 03:49:33;;;;;;;7.23;4.90;;;;;;;;;;5050511;28;20483;-67
2021/04/26 03:51:59;;;;;;;5.90;4.10;;;;;;;;;;5051398;28;20059;-67
2021/04/26 03:54:24;;;;;;;6.27;3.77;;;;;;;;;;5053203;28;20099;-68
2021/04/26 03:56:49;;;;;;;8.17;4.10;;;;;;;;;;5052823;28;20017;-67
2021/04/26 03:59:15;;;;;;;8.80;4.63;;;;;;;;;;5050254;28;20013;-68
2021/04/26 04:01:40;;;;;;;8.07;3.87;;;;;;;;;;5052430;28;20024;-68
2021/04/26 04:04:06;;;;;;;7.00;3.87;;;;;;;;;;5052306;28;20069;-67
2021/04/26 04:06:31;;;;;;;6.47;3.93;;;;;;;;;;5051144;28;20033;-67
2021/04/26 04:09:00;;;;;;;9.70;4.13;;;;;;;;;;5047292;28;20240;-68
2021/04/26 04:11:26;;;;;;;6.67;4.10;;;;;;;;;;5060770;28;20052;-67
2021/04/26 04:13:51;;;;;;;7.07;4.00;;;;;;;;;;5052527;28;20040;-67
2021/04/26 04:16:16;;;;;;;6.17;3.70;;;;;;;;;;5051576;28;20013;-68
2021/04/26 04:18:42;;;;;;;5.50;3.70;;;;;;;;;;5049484;28;20091;-68
2021/04/26 04:21:07;;;;;;;6.57;4.27;;;;;;;;;;5050507;28;20040;-68
2021/04/26 04:23:32;;;;;;;5.23;3.70;;;;;;;;;;5051830;28;20017;-67
2021/04/26 04:25:57;;;;;;;5.03;3.50;;;;;;;;;;5051476;28;20033;-67
2021/04/26 04:28:22;;;;;;;7.47;3.80;;;;;;;;;;5050826;28;20024;-67
2021/04/26 04:30:48;;;;;;;9.03;4.07;;;;;;;;;;5050058;28;20017;-67
2021/04/26 04:33:13;;;;;;;6.53;3.90;;;;;;;;;;5051178;28;20013;-67
2021/04/26 04:35:38;;;;;;;7.43;3.97;;;;;;;;;;5052320;28;20100;-67
2021/04/26 04:38:04;;;;;;;7.67;4.33;;;;;;;;;;5051833;28;20021;-68
2021/04/26 04:40:29;;;;;;;8.20;4.53;;;;;;;;;;5044367;28;20095;-68
2021/04/26 04:42:54;;;;;;;9.03;4.77;;;;;;;;;;5042872;28;20021;-68
2021/04/26 04:45:20;;;;;;;7.83;4.47;;;;;;;;;;5052210;28;20025;-67
2021/04/26 04:47:45;;;;;;;7.37;3.47;;;;;;;;;;5051773;28;20024;-68
2021/04/26 04:50:10;;;;;;;11.00;5.03;;;;;;;;;;5049135;28;20543;-68
2021/04/26 04:52:36;;;;;;;10.07;4.00;;;;;;;;;;5050143;28;20058;-68
2021/04/26 04:55:01;;;;;;;8.00;3.57;;;;;;;;;;5051733;28;20048;-69
2021/04/26 04:57:26;;;;;;;9.20;4.20;;;;;;;;;;5047877;28;20468;-68
2021/04/26 04:59:51;;;;;;;8.80;4.10;;;;;;;;;;5043783;28;20020;-68
2021/04/26 05:02:16;;;;;;;7.43;4.57;;;;;;;;;;5049886;28;20025;-68
2021/04/26 05:04:42;;;;;;;8.97;3.90;;;;;;;;;;5051457;28;20025;-68
2021/04/26 05:07:08;;;;;;;8.67;3.73;;;;;;;;;;5048716;28;20029;-68
2021/04/26 05:09:33;;;;;;;8.43;3.33;;;;;;;;;;5047314;28;20020;-68
2021/04/26 05:11:58;;;;;;;9.17;3.43;;;;;;;;;;5036261;28;20033;-69
2021/04/26 05:14:25;;;;;;;6.73;3.50;;;;;;;;;;5047362;28;20070;-67
2021/04/26 05:16:50;;;;;;;8.73;3.87;;;;;;;;;;5045753;28;20491;-67
2021/04/26 05:19:16;;;;;;;6.60;3.60;;;;;;;;;;5047318;28;20018;-68
2021/04/26 05:21:42;;;;;;;9.33;3.50;;;;;;;;;;5078917;28;20032;-67
2021/04/26 05:24:07;;;;;;;7.20;3.90;;;;;;;;;;5044520;28;20441;-69
2021/04/26 05:26:33;;;;;;;7.43;3.70;;;;;;;;;;5044714;28;20021;-68
2021/04/26 05:28:58;;;;;;;7.80;3.13;;;;;;;;;;5048043;28;20538;-68
2021/04/26 05:31:23;;;;;;;7.10;3.97;;;;;;;;;;5048312;28;20087;-68
2021/04/26 05:33:48;;;;;;;12.93;3.93;;;;;;;;;;5045035;28;20503;-68
2021/04/26 05:36:14;;;;;;;10.43;4.20;;;;;;;;;;5041156;28;20056;-68
2021/04/26 05:38:39;;;;;;;5.80;3.33;;;;;;;;;;5041879;28;20040;-68
2021/04/26 05:41:04;;;;;;;10.23;4.17;;;;;;;;;;5049241;28;20029;-68
2021/04/26 05:43:29;;;;;;;9.50;3.30;;;;;;;;;;5033929;28;20103;-68
2021/04/26 05:45:54;;;;;;;8.13;3.77;;;;;;;;;;5048457;28;20028;-67
2021/04/26 05:48:20;;;;;;;8.97;3.87;;;;;;;;;;5044501;28;20025;-67
2021/04/26 05:50:45;;;;;;;10.37;3.50;;;;;;;;;;5047370;28;20021;-67
2021/04/26 05:53:10;;;;;;;6.67;3.60;;;;;;;;;;5043274;28;20116;-68
2021/04/26 05:55:36;;;;;;;8.07;3.57;;;;;;;;;;5046788;28;20476;-68
2021/04/26 05:58:01;;;;;;;8.97;3.23;;;;;;;;;;5037667;28;20024;-68
2021/04/26 06:00:26;;;;;;;7.00;3.03;;;;;;;;;;5041521;28;20104;-68
2021/04/26 06:02:51;;;;;;;7.20;2.70;;;;;;;;;;5036080;28;20043;-67
2021/04/26 06:05:17;;;;;;;5.87;2.93;;;;;;;;;;5045146;28;20017;-67
2021/04/26 06:07:42;;;;;;;7.40;2.70;;;;;;;;;;5046402;28;20132;-69
2021/04/26 06:10:07;;;;;;;4.80;2.20;;;;;;;;;;5033158;28;20021;-69
2021/04/26 06:12:33;;;;;;;7.40;2.73;;;;;;;;;;5045105;28;20025;-69
2021/04/26 06:14:58;;;;;;;10.23;3.07;;;;;;;;;;5048714;28;20033;-68
2021/04/26 06:17:23;;;;;;;4.60;2.23;;;;;;;;;;5048499;28;20136;-68
2021/04/26 06:19:49;;;;;;;4.87;2.07;;;;;;;;;;5040877;28;20391;-69
2021/04/26 06:22:14;;;;;;;6.80;2.57;;;;;;;;;;5041137;28;20112;-69
2021/04/26 06:24:39;;;;;;;6.53;2.23;;;;;;;;;;5049359;28;20025;-69
2021/04/26 06:27:04;;;;;;;7.27;2.40;;;;;;;;;;5044656;28;20029;-69
2021/04/26 06:29:30;;;;;;;5.27;2.27;;;;;;;;;;5038707;28;20025;-68
2021/04/26 06:31:55;;;;;;;4.27;2.10;;;;;;;;;;5050047;28;20060;-68
2021/04/26 06:34:20;;;;;;;7.13;2.30;;;;;;;;;;5054466;28;20013;-68
2021/04/26 06:36:45;;;;;;;5.97;2.40;;;;;;;;;;5040928;28;20076;-68
2021/04/26 06:39:11;;;;;;;4.90;2.07;;;;;;;;;;5043994;28;20368;-72
2021/04/26 06:41:36;;;;;;;5.97;2.60;;;;;;;;;;5045149;28;20075;-66
2021/04/26 06:44:01;;;;;;;4.43;2.03;;;;;;;;;;5035413;28;20021;-68
2021/04/26 06:46:26;;;;;;;8.47;2.40;;;;;;;;;;5053972;28;20032;-67
2021/04/26 06:48:52;;;;;;;7.63;1.90;;;;;;;;;;5037707;28;20400;-68
2021/04/26 06:51:17;;;;;;;4.23;1.80;;;;;;;;;;5050763;28;20020;-71
2021/04/26 06:53:42;;;;;;;5.93;1.60;;;;;;;;;;5035959;28;20348;-71
2021/04/26 06:56:07;;;;;;;6.70;1.77;;;;;;;;;;5039348;28;20525;-72
2021/04/26 06:58:33;;;;;;;6.77;1.67;;;;;;;;;;5043413;28;20484;-71
2021/04/26 07:00:59;;;;;;;4.63;1.63;;;;;;;;;;5033248;28;20025;-72
2021/04/26 07:03:25;;;;;;;6.40;1.93;;;;;;;;;;5046924;28;20392;-70
2021/04/26 07:05:50;;;;;;;3.57;1.63;;;;;;;;;;5045116;28;20017;-70
2021/04/26 07:08:15;;;;;;;3.70;1.50;;;;;;;;;;5041452;28;20384;-70
2021/04/26 07:10:40;;;;;;;7.33;1.70;;;;;;;;;;5039774;28;20582;-72
2021/04/26 07:13:05;;;;;;;3.53;1.30;;;;;;;;;;5043155;28;20415;-70
2021/04/26 07:15:31;;;;;;;1.70;0.80;;;;;;;;;;5042698;28;20028;-70
2021/04/26 07:17:56;;;;;;;5.60;0.60;;;;;;;;;;5050515;28;20044;-67
2021/04/26 07:20:21;;;;;;;2.40;0.50;;;;;;;;;;5041605;28;20030;-67
2021/04/26 07:22:47;;;;;;;2.00;0.40;;;;;;;;;;5046118;28;20033;-71
2021/04/26 07:25:12;;;;;;;2.20;0.50;;;;;;;;;;5053716;28;20096;-72
2021/04/26 07:27:38;;;;;;;6.00;0.70;;;;;;;;;;5053658;28;20036;-71
2021/04/26 07:30:04;;;;;;;4.33;0.60;;;;;;;;;;5049237;28;20029;-72
2021/04/26 07:32:30;;;;;;;1.23;0.50;;;;;;;;;;5052691;28;20017;-68
2021/04/26 07:34:55;;;;;;;1.33;0.30;;;;;;;;;;5052291;28;20086;-71
2021/04/26 07:37:20;;;;;;;1.47;0.20;;;;;;;;;;5053163;28;20100;-70
2021/04/26 07:39:46;;;;;;;3.70;0.30;;;;;;;;;;5050626;28;20430;-70
2021/04/26 07:42:11;;;;;;;1.23;0.20;;;;;;;;;;5052652;28;20017;-64
2021/04/26 07:44:38;;;;;;;2.30;0.10;;;;;;;;;;5053597;28;20225;-70
2021/04/26 07:47:03;;;;;;;1.10;0.30;;;;;;;;;;5039167;28;20023;-71
2021/04/26 07:49:28;;;;;;;0.77;0.10;;;;;;;;;;5038822;28;20033;-69
2021/04/26 07:51:54;;;;;;;0.27;0.00;;;;;;;;;;5043685;28;20032;-70
2021/04/26 07:54:19;;;;;;;0.30;0.10;;;;;;;;;;5033204;28;20014;-68
2021/04/26 07:56:44;;;;;;;0.33;0.00;;;;;;;;;;5032207;28;20453;-70
2021/04/26 07:59:10;;;;;;;0.45;0.10;;;;;;;;;;5042520;28;20029;-69
2021/04/26 08:01:35;;;;;;;0.85;0.00;;;;;;;;;;5064589;28;20025;-70
2021/04/26 08:04:00;;;;;;;0.38;0.05;;;;;;;;;;5051335;28;20480;-69
2021/04/26 08:06:26;;;;;;;0.82;0.10;;;;;;;;;;5083482;28;20013;-70
2021/04/26 08:08:51;;;;;;;1.17;0.20;;;;;;;;;;5049529;28;20324;-68
2021/04/26 08:11:16;;;;;;;3.00;0.00;;;;;;;;;;5052270;28;20017;-67
2021/04/26 08:13:42;;;;;;;0.40;0.10;;;;;;;;;;5052857;28;20017;-74
2021/04/26 08:16:07;;;;;;;0.63;0.10;;;;;;;;;;5050392;28;20468;-68
2021/04/26 08:18:32;;;;;;;0.50;0.10;;;;;;;;;;5046481;28;20032;-69
2021/04/26 08:20:58;;;;;;;3.70;0.20;;;;;;;;;;5032353;28;20127;-66
2021/04/26 08:23:23;;;;;;;1.42;0.40;;;;;;;;;;5051611;28;20169;-71
2021/04/26 08:25:48;;;;;;;1.85;0.10;;;;;;;;;;5049271;28;20170;-69
2021/04/26 08:28:16;;;;;;;1.17;0.10;;;;;;;;;;5031876;28;20021;-70
2021/04/26 08:30:41;;;;;;;0.32;0.13;;;;;;;;;;5028224;28;20025;-71
2021/04/26 08:33:06;;;;;;;0.30;0.20;;;;;;;;;;5040087;28;20096;-68
2021/04/26 08:35:32;;;;;;;2.33;0.43;;;;;;;;;;5039952;28;20521;-71
2021/04/26 08:37:57;;;;;;;1.25;0.10;;;;;;;;;;5049323;28;20029;-67
2021/04/26 08:40:22;;;;;;;0.20;0.10;;;;;;;;;;5073764;28;20051;-69
2021/04/26 08:42:47;;;;;;;1.73;0.10;;;;;;;;;;5050989;28;20067;-68
2021/04/26 08:45:12;;;;;;;0.20;0.10;;;;;;;;;;5052770;28;20411;-72
2021/04/26 08:47:39;;;;;;;0.65;0.10;;;;;;;;;;5049265;28;20394;-72
2021/04/26 08:50:05;;;;;;;0.63;0.10;;;;;;;;;;5037805;28;20029;-71
2021/04/26 08:52:31;;;;;;;0.77;0.10;;;;;;;;;;5051534;28;20021;-70
2021/04/26 08:54:59;;;;;;;1.95;0.20;;;;;;;;;;5039674;28;20108;-70
2021/04/26 08:57:25;;;;;;;1.30;0.20;;;;;;;;;;5049695;28;20024;-69
2021/04/26 08:59:50;;;;;;;4.53;0.30;;;;;;;;;;5035936;28;20025;-66
2021/04/26 09:02:15;;;;;;;0.95;0.10;;;;;;;;;;5048853;28;20087;-71
2021/04/26 09:04:48;;;;;;;2.45;0.20;;;;;;;;;;5050508;28;20034;-70
2021/04/26 09:07:14;;;;;;;0.82;0.20;;;;;;;;;;5036494;28;20022;-69
2021/04/26 09:09:52;;;;;;;1.20;0.20;;;;;;;;;;5047515;28;20304;-68
2021/04/26 09:12:28;;;;;;;0.30;0.22;;;;;;;;;;5033355;28;20017;-70
2021/04/26 09:14:55;;;;;;;1.17;0.10;;;;;;;;;;5049607;28;20074;-67
2021/04/26 09:17:39;;;;;;;3.25;0.17;;;;;;;;;;5047718;28;20041;-69
2021/04/26 09:20:20;;;;;;;1.17;0.10;;;;;;;;;;5034494;28;20100;-68
2021/04/26 09:22:58;;;;;;;0.63;0.10;;;;;;;;;;5048334;28;20476;-69
2021/04/26 09:25:26;;;;;;;1.02;0.10;;;;;;;;;;5049087;28;20036;-72
2021/04/26 09:28:05;;;;;;;0.82;0.10;;;;;;;;;;5039492;28;20017;-72
2021/04/26 09:30:34;;;;;;;2.67;0.20;;;;;;;;;;5039312;28;20021;-73
2021/04/26 09:33:13;;;;;;;1.90;0.20;;;;;;;;;;5049166;28;20059;-73
2021/04/26 09:35:38;;;;;;;2.60;0.22;;;;;;;;;;5039255;28;20013;-73
2021/04/26 09:38:21;;;;;;;2.95;0.30;;;;;;;;;;5045246;28;20032;-73
2021/04/26 09:41:05;;;;;;;1.50;0.17;;;;;;;;;;5045889;28;20059;-72
2021/04/26 09:43:31;;;;;;;0.32;0.08;;;;;;;;;;5051588;28;20028;-73
2021/04/26 09:45:56;;;;;;;0.80;0.10;;;;;;;;;;5040952;28;20013;-73
2021/04/26 09:48:23;;;;;;;1.08;0.10;;;;;;;;;;5049594;28;20028;-73
2021/04/26 09:50:56;;;;;;;0.52;0.10;;;;;;;;;;5047169;28;20483;-73
2021/04/26 09:53:25;;;;;;;0.63;0.20;;;;;;;;;;5050072;28;20009;-73
2021/04/26 09:55:52;;;;;;;1.85;0.10;;;;;;;;;;5043652;28;20022;-72
2021/04/26 09:58:18;;;;;;;1.83;0.10;;;;;;;;;;5039807;28;20025;-74
2021/04/26 10:00:45;;;;;;;3.97;0.30;;;;;;;;;;5039627;28;20032;-72
2021/04/26 10:03:11;;;;;;;1.65;0.20;;;;;;;;;;5044279;28;20185;-73
2021/04/26 10:05:36;;;;;;;0.28;0.13;;;;;;;;;;5050885;28;20104;-74
2021/04/26 10:08:02;;;;;;;1.92;0.20;;;;;;;;;;5048887;28;20029;-73
2021/04/26 10:10:27;;;;;;;1.00;0.30;;;;;;;;;;5052233;28;20070;-72
2021/04/26 10:12:52;;;;;;;2.63;0.20;;;;;;;;;;5054806;28;20029;-73
2021/04/26 10:15:23;;;;;;;1.85;0.20;;;;;;;;;;5052384;28;20028;-73
2021/04/26 10:17:49;;;;;;;0.85;0.30;;;;;;;;;;5045100;28;20045;-72
2021/04/26 10:20:15;;;;;;;3.40;0.32;;;;;;;;;;5043626;28;20078;-74
2021/04/26 10:22:42;;;;;;;2.80;0.20;;;;;;;;;;5048712;28;20384;-69
2021/04/26 10:25:08;;;;;;;1.10;0.20;;;;;;;;;;5047858;28;20452;-72
2021/04/26 10:27:37;;;;;;;1.20;0.10;;;;;;;;;;5048745;28;20073;-66
2021/04/26 10:30:10;;;;;;;0.75;0.20;;;;;;;;;;5043404;28;20039;-68
2021/04/26 10:32:50;;;;;;;1.70;0.20;;;;;;;;;;5052147;28;20018;-68
2021/04/26 10:35:15;;;;;;;1.85;0.20;;;;;;;;;;5048274;28;20013;-68
2021/04/26 10:37:41;;;;;;;1.55;0.20;;;;;;;;;;5046037;28;20091;-69
2021/04/26 10:40:08;;;;;;;0.68;0.20;;;;;;;;;;5046189;28;20029;-68
2021/04/26 10:42:33;;;;;;;0.40;0.30;;;;;;;;;;5045366;28;20031;-67
2021/04/26 10:44:58;;;;;;;1.52;0.20;;;;;;;;;;5049002;28;20021;-68
2021/04/26 10:47:24;;;;;;;1.55;0.20;;;;;;;;;;5045594;28;20040;-68
2021/04/26 10:49:51;;;;;;;0.90;0.20;;;;;;;;;;5045701;28;20037;-67
2021/04/26 10:52:36;;;;;;;3.40;0.30;;;;;;;;;;5048462;28;20013;-68
2021/04/26 10:55:20;;;;;;;1.20;0.30;;;;;;;;;;5041947;28;20464;-68
2021/04/26 10:57:49;;;;;;;0.85;0.20;;;;;;;;;;5053113;28;20036;-68
2021/04/26 11:00:21;;;;;;;0.77;0.20;;;;;;;;;;5049682;28;20017;-68
2021/04/26 11:03:15;;;;;;;2.75;0.30;;;;;;;;;;5047901;28;20083;-68
2021/04/26 11:05:45;;;;;;;0.60;0.30;;;;;;;;;;5046977;28;20112;-68
2021/04/26 11:08:37;;;;;;;0.90;0.20;;;;;;;;;;5053906;28;20031;-68
2021/04/26 11:11:14;;;;;;;2.30;0.40;;;;;;;;;;5045181;28;20005;-70
2021/04/26 11:13:46;;;;;;;0.88;0.45;;;;;;;;;;5037532;28;20021;-68
2021/04/26 11:16:12;;;;;;;1.75;0.30;;;;;;;;;;5052583;28;20483;-69
2021/04/26 11:18:38;;;;;;;1.70;0.30;;;;;;;;;;5049811;28;20714;-68
2021/04/26 11:21:04;;;;;;;2.25;0.43;;;;;;;;;;5045988;28;20355;-68
2021/04/26 11:23:40;;;;;;;0.40;0.30;;;;;;;;;;5080630;28;20159;-68
2021/04/26 11:26:12;;;;;;;2.10;0.40;;;;;;;;;;5044752;28;20453;-67
2021/04/26 11:28:56;;;;;;;2.50;0.32;;;;;;;;;;5047012;28;20021;-68
2021/04/26 11:31:41;;;;;;;1.63;0.40;;;;;;;;;;5044226;28;20056;-69
2021/04/26 11:34:06;;;;;;;;;;;;;;;;;;5034062;28;20026;-73
2021/04/26 11:36:33;;;;;;;0.57;0.30;;;;;;;;;;5039199;28;19954;-72
2021/04/26 11:39:01;;;;;;;1.13;0.52;;;;;;;;;;5047689;28;20028;-72
2021/04/26 11:41:38;;;;;;;2.42;0.30;;;;;;;;;;5048095;28;20158;-73
2021/04/26 11:44:03;;;;;;;1.27;0.45;;;;;;;;;;5052726;28;20029;-73
2021/04/26 11:46:30;;;;;;;0.93;0.40;;;;;;;;;;5045438;28;20032;-72
2021/04/26 11:49:15;;;;;;;3.92;0.52;;;;;;;;;;5039520;28;20736;-71
2021/04/26 11:51:41;;;;;;;2.92;0.30;;;;;;;;;;5056102;28;20438;-72
2021/04/26 11:54:10;;;;;;;1.33;0.40;;;;;;;;;;5036192;28;20105;-72
2021/04/26 11:56:35;;;;;;;1.60;0.30;;;;;;;;;;5047293;28;20025;-71
2021/04/26 11:59:04;;;;;;;1.07;0.43;;;;;;;;;;5043974;28;20027;-71
2021/04/26 12:01:29;;;;;;;0.82;0.20;;;;;;;;;;5033148;28;20268;-72
2021/04/26 12:03:55;;;;;;;1.20;0.40;;;;;;;;;;5050892;28;20123;-71
2021/04/26 12:06:20;;;;;;;1.10;0.30;;;;;;;;;;5042287;28;20048;-68
2021/04/26 12:08:46;;;;;;;2.35;0.28;;;;;;;;;;5036127;28;20390;-70
2021/04/26 12:11:19;;;;;;;3.83;0.32;;;;;;;;;;5032818;28;20071;-65
2021/04/26 12:14:03;;;;;;;1.35;0.30;;;;;;;;;;5040160;28;20048;-72
2021/04/26 12:16:28;;;;;;;1.08;0.30;;;;;;;;;;5045754;28;20499;-68
2021/04/26 12:18:57;;;;;;;1.25;0.30;;;;;;;;;;5032376;28;20028;-71
2021/04/26 12:21:22;;;;;;;1.20;0.20;;;;;;;;;;5032805;28;20510;-69
2021/04/26 12:23:48;;;;;;;0.40;0.20;;;;;;;;;;5033005;28;20026;-68
2021/04/26 12:26:13;;;;;;;2.08;0.30;;;;;;;;;;5033004;28;20057;-72
2021/04/26 12:28:42;;;;;;;2.85;0.30;;;;;;;;;;5033959;28;20363;-68
2021/04/26 12:31:16;;;;;;;3.45;0.50;;;;;;;;;;5039049;28;20439;-68
2021/04/26 12:33:42;;;;;;;;;;;;;;;;;;5034250;28;20367;-68
2021/04/26 12:36:08;;;;;;;;;;;;;;;;;;5041812;28;19939;-68
2021/04/26 12:38:35;;;;;;;1.05;0.30;;;;;;;;;;5042035;28;19944;-68
2021/04/26 12:41:00;;;;;;;2.15;0.40;;;;;;;;;;5042028;28;20067;-68
2021/04/26 12:43:36;;;;;;;0.98;0.30;;;;;;;;;;5051199;28;20021;-68
2021/04/26 12:46:08;;;;;;;1.40;0.30;;;;;;;;;;5045720;28;20037;-68
2021/04/26 12:48:34;;;;;;;1.30;0.25;;;;;;;;;;5039663;28;20048;-68
2021/04/26 12:51:00;;;;;;;1.80;0.50;;;;;;;;;;5048258;28;20059;-68
2021/04/26 12:53:25;;;;;;;1.27;0.30;;;;;;;;;;5040906;28;20024;-67
2021/04/26 12:55:59;;;;;;;0.63;0.30;;;;;;;;;;5049478;28;20104;-67
2021/04/26 12:58:35;;;;;;;0.65;0.38;;;;;;;;;;5049852;28;20097;-67
2021/04/26 13:01:05;;;;;;;1.67;0.35;;;;;;;;;;5034593;28;20483;-67
2021/04/26 13:03:34;;;;;;;1.50;0.25;;;;;;;;;;5042593;28;20471;-68
2021/04/26 13:06:04;;;;;;;1.23;0.28;;;;;;;;;;5042758;28;20052;-68
2021/04/26 13:08:30;;;;;;;2.53;0.20;;;;;;;;;;5044481;28;20029;-68
2021/04/26 13:10:56;;;;;;;1.13;0.30;;;;;;;;;;5035544;28;20029;-66
2021/04/26 13:13:22;;;;;;;0.50;0.30;;;;;;;;;;5041771;28;20021;-66
2021/04/26 13:15:47;;;;;;;1.60;0.30;;;;;;;;;;5047445;28;20021;-67
2021/04/26 13:18:24;;;;;;;1.70;0.30;;;;;;;;;;5050314;28;20041;-67
2021/04/26 13:21:03;;;;;;;0.60;0.30;;;;;;;;;;5042218;28;20544;-66
2021/04/26 13:23:33;;;;;;;0.30;0.20;;;;;;;;;;5050139;28;20025;-67
2021/04/26 13:25:58;;;;;;;0.75;0.30;;;;;;;;;;5051265;28;20020;-67
2021/04/26 13:28:27;;;;;;;2.63;0.30;;;;;;;;;;5049939;28;20372;-67
2021/04/26 13:30:53;;;;;;;2.42;0.20;;;;;;;;;;5048581;28;20495;-66
2021/04/26 13:33:18;;;;;;;7.40;0.40;;;;;;;;;;5042598;28;20025;-67
2021/04/26 13:35:44;;;;;;;1.60;0.30;;;;;;;;;;5036104;28;20097;-67
2021/04/26 13:38:09;;;;;;;2.03;0.30;;;;;;;;;;5031557;28;20025;-67
2021/04/26 13:40:34;;;;;;;1.50;0.20;;;;;;;;;;5040158;28;20033;-68
2021/04/26 13:43:00;;;;;;;1.27;0.20;;;;;;;;;;5055439;28;20017;-66
2021/04/26 13:45:25;;;;;;;0.50;0.20;;;;;;;;;;5052122;28;20264;-66
2021/04/26 13:47:50;;;;;;;2.13;0.40;;;;;;;;;;5045252;28;20298;-66
2021/04/26 13:50:15;;;;;;;1.17;0.27;;;;;;;;;;5040923;28;20275;-67
2021/04/26 13:52:40;;;;;;;1.73;0.20;;;;;;;;;;5044527;28;20286;-68
2021/04/26 13:55:06;;;;;;;1.30;0.30;;;;;;;;;;5036587;28;20271;-66
2021/04/26 13:57:31;;;;;;;2.92;0.30;;;;;;;;;;5053000;28;20342;-67
2021/04/26 13:59:56;;;;;;;0.80;0.20;;;;;;;;;;5041101;28;20055;-67
2021/04/26 14:02:22;;;;;;;1.27;0.20;;;;;;;;;;5053431;28;20267;-67
2021/04/26 14:04:47;;;;;;;0.65;0.17;;;;;;;;;;5049702;28;20388;-66
2021/04/26 14:07:12;;;;;;;0.60;0.20;;;;;;;;;;5052501;28;20351;-67
2021/04/26 14:09:37;;;;;;;1.65;0.30;;;;;;;;;;5049093;28;20645;-67
2021/04/26 14:12:03;;;;;;;0.77;0.40;;;;;;;;;;5044317;28;20021;-66
2021/04/26 14:14:28;;;;;;;1.73;0.30;;;;;;;;;;5047116;28;20548;-67
2021/04/26 14:16:53;;;;;;;1.47;0.30;;;;;;;;;;5047526;28;20049;-67
2021/04/26 14:19:19;;;;;;;0.60;0.30;;;;;;;;;;5048730;28;20306;-67
2021/04/26 14:21:44;;;;;;;3.63;0.30;;;;;;;;;;5078166;28;20116;-67
2021/04/26 14:24:10;;;;;;;2.13;0.27;;;;;;;;;;5041492;28;20021;-67
2021/04/26 14:26:35;;;;;;;0.85;0.20;;;;;;;;;;5042880;28;20275;-67
2021/04/26 14:29:00;;;;;;;2.08;0.30;;;;;;;;;;5036690;28;20344;-67
2021/04/26 14:31:25;;;;;;;3.97;0.50;;;;;;;;;;5052418;28;20021;-67
2021/04/26 14:33:50;;;;;;;1.40;0.30;;;;;;;;;;5050525;28;20013;-67
2021/04/26 14:36:16;;;;;;;1.00;0.50;;;;;;;;;;5044587;28;20665;-67
2021/04/26 14:38:41;;;;;;;1.43;0.20;;;;;;;;;;5044415;28;21270;-67
2021/04/26 14:41:06;;;;;;;0.70;0.30;;;;;;;;;;5045266;28;20026;-68
2021/04/26 14:43:33;;;;;;;2.15;0.30;;;;;;;;;;5045217;28;20283;-68